Terminal Aerodrome Forecast
Issued by NWS

Home | Current Version | Previous Version | Text Only | Print | Product List | Glossary On
Versions: 1 2 3 4 5 6 7 8 9 10 11 12 13 14 15 16 17 18 19 20
000
FTUS46 KLOX 111700
TAFLGB
TAF
KLGB 111733Z 1118/1218 VRB03KT P6SM SCT020
     FM112300 30010KT P6SM SKC
     FM120300 VRB03KT P6SM SKC
     FM120700 VRB03KT P6SM BKN009
     FM121100 VRB03KT P6SM OVC012
     FM121700 30009KT P6SM SCT020=

USA.gov is the U.S. government's official web portal to all federal, state and local government web resources and services.